Time;durP1;ratioP1;P1;durP2;ratioP2;P2;SDS_P1;SDS_P2;PMS_P1;PMS_P2;Temp;Humidity;BMP_temperature;BMP_pressure;BME280_temperature;BME280_humidity;BME280_pressure;Samples;Min_cycle;Max_cycle;Signal;HPM_P1;HPM_P2
2022/02/21 00:00:20;;;;;;;3.20;0.40;;;;;;;7.50;77.17;98671.78;105645;1273;23576;-57
2022/02/21 00:03:11;;;;;;;3.90;0.70;;;;;;;7.48;77.17;98667.84;105549;1273;26566;-58
2022/02/21 00:05:43;;;;;;;5.30;0.50;;;;;;;7.47;77.41;98661.06;105634;1273;22472;-56
2022/02/21 00:08:15;;;;;;;6.40;0.60;;;;;;;7.46;77.42;98654.15;105632;1273;26086;-59
2022/02/21 00:10:46;;;;;;;2.40;0.40;;;;;;;7.45;77.48;98646.36;105857;1273;26193;-58
2022/02/21 00:13:18;;;;;;;2.00;0.40;;;;;;;7.44;77.58;98641.91;105791;1273;24308;-58
2022/02/21 00:15:49;;;;;;;1.90;0.40;;;;;;;7.43;77.54;98639.39;105697;1273;22579;-57
2022/02/21 00:18:21;;;;;;;1.20;0.30;;;;;;;7.43;77.51;98634.19;105714;1273;24389;-57
2022/02/21 00:20:54;;;;;;;3.00;0.30;;;;;;;7.42;77.60;98627.06;105671;1273;22587;-58
2022/02/21 00:23:26;;;;;;;1.70;0.30;;;;;;;7.42;77.65;98617.83;105628;1273;26001;-58
2022/02/21 00:25:57;;;;;;;3.30;0.40;;;;;;;7.42;77.59;98612.73;105700;1273;23333;-56
2022/02/21 00:28:29;;;;;;;2.50;0.40;;;;;;;7.43;77.70;98604.30;106068;1273;24150;-55
2022/02/21 00:31:01;;;;;;;2.00;0.30;;;;;;;7.43;77.76;98598.35;105600;1273;24233;-58
2022/02/21 00:33:32;;;;;;;1.70;0.20;;;;;;;7.42;77.88;98596.12;105651;1273;25343;-57
2022/02/21 00:36:04;;;;;;;1.80;0.30;;;;;;;7.41;77.91;98594.20;105776;1273;22576;-57
2022/02/21 00:38:37;;;;;;;2.30;0.30;;;;;;;7.39;77.96;98591.81;106111;1273;22665;-57
2022/02/21 00:41:10;;;;;;;1.90;0.30;;;;;;;7.39;77.99;98582.27;106292;1273;24437;-58
2022/02/21 00:43:42;;;;;;;1.50;0.30;;;;;;;7.39;78.21;98578.39;105658;1273;22556;-58
2022/02/21 00:46:13;;;;;;;2.50;0.30;;;;;;;7.38;78.21;98570.01;105624;1273;22603;-58
2022/02/21 00:48:45;;;;;;;3.50;0.40;;;;;;;7.38;78.28;98569.80;105674;1273;22740;-58
2022/02/21 00:51:17;;;;;;;3.80;0.30;;;;;;;7.37;78.48;98551.94;105833;1273;25316;-55
2022/02/21 00:53:49;;;;;;;3.90;0.30;;;;;;;7.36;78.43;98552.08;105557;1273;24237;-58
2022/02/21 00:56:21;;;;;;;2.40;0.20;;;;;;;7.34;78.59;98549.79;105598;1273;25401;-57
2022/02/21 00:58:52;;;;;;;2.00;0.40;;;;;;;7.33;78.67;98537.98;105889;1273;24440;-58
2022/02/21 01:01:24;;;;;;;4.20;0.40;;;;;;;7.32;78.83;98532.42;105719;1273;22594;-57
2022/02/21 01:03:56;;;;;;;1.90;0.40;;;;;;;7.31;78.77;98526.61;105902;1274;22580;-57
2022/02/21 01:06:28;;;;;;;2.00;0.40;;;;;;;7.30;78.77;98519.44;105762;1271;25473;-58
2022/02/21 01:09:00;;;;;;;1.50;0.30;;;;;;;7.30;78.71;98510.02;105678;1271;22554;-58
2022/02/21 01:11:31;;;;;;;2.90;0.40;;;;;;;7.30;78.87;98505.87;105632;1271;22553;-59
2022/02/21 01:14:03;;;;;;;1.30;0.30;;;;;;;7.30;78.74;98499.96;105677;1273;22557;-56
2022/02/21 01:16:35;;;;;;;1.80;0.30;;;;;;;7.30;78.91;98493.65;105733;1273;22565;-57
2022/02/21 01:19:07;;;;;;;3.50;0.20;;;;;;;7.30;78.92;98490.02;105895;1273;25315;-56
2022/02/21 01:21:39;;;;;;;3.40;0.30;;;;;;;7.30;78.81;98482.29;105795;1273;22609;-55
2022/02/21 01:24:11;;;;;;;2.20;0.40;;;;;;;7.31;78.93;98477.27;105706;1273;22618;-58
2022/02/21 01:26:43;;;;;;;1.60;0.40;;;;;;;7.31;78.83;98474.54;105682;1272;24358;-59
2022/02/21 01:29:16;;;;;;;4.40;0.40;;;;;;;7.33;78.89;98475.23;105755;1273;23105;-58
2022/02/21 01:31:49;;;;;;;1.40;0.20;;;;;;;7.33;78.86;98470.85;105698;1271;22538;-58
2022/02/21 01:34:21;;;;;;;1.80;0.20;;;;;;;7.35;78.70;98461.63;105697;1273;23190;-58
2022/02/21 01:36:53;;;;;;;0.50;0.10;;;;;;;7.37;78.68;98461.93;105702;1273;24278;-58
2022/02/21 01:39:26;;;;;;;1.10;0.20;;;;;;;7.39;78.74;98455.08;105977;1273;25503;-58
2022/02/21 01:41:57;;;;;;;1.10;0.20;;;;;;;7.40;78.71;98451.05;105858;1273;26241;-58
2022/02/21 01:44:39;;;;;;;2.30;0.30;;;;;;;7.41;78.75;98448.08;105654;1273;22559;-58
2022/02/21 01:47:12;;;;;;;2.00;0.10;;;;;;;7.41;78.88;98448.48;105678;1273;22546;-57
2022/02/21 01:49:44;;;;;;;2.70;0.20;;;;;;;7.41;78.96;98434.89;105739;1273;22607;-57
2022/02/21 01:52:17;;;;;;;1.20;0.20;;;;;;;7.41;79.10;98428.63;105624;1272;25422;-58
2022/02/21 01:54:50;;;;;;;2.20;0.20;;;;;;;7.40;79.04;98418.44;105640;1273;22562;-58
2022/02/21 01:57:22;;;;;;;1.10;0.10;;;;;;;7.40;79.22;98403.74;105622;1273;24302;-58
2022/02/21 01:59:54;;;;;;;1.20;0.10;;;;;;;7.39;79.37;98386.34;105574;1273;22559;-60
2022/02/21 02:02:26;;;;;;;1.40;0.20;;;;;;;7.38;79.40;98373.61;105601;1273;22704;-58
2022/02/21 02:05:00;;;;;;;1.40;0.20;;;;;;;7.37;79.63;98352.11;105643;1273;24242;-58
2022/02/21 02:07:32;;;;;;;1.20;0.20;;;;;;;7.34;79.71;98332.77;105594;1273;25261;-58
2022/02/21 02:10:04;;;;;;;1.10;0.20;;;;;;;7.33;79.66;98334.14;105886;1273;23138;-58
2022/02/21 02:12:36;;;;;;;0.40;0.10;;;;;;;7.32;79.63;98328.17;105682;1272;24508;-57
2022/02/21 02:15:13;;;;;;;1.30;0.10;;;;;;;7.31;79.65;98319.75;105769;1273;22578;-59
2022/02/21 02:17:46;;;;;;;2.30;0.20;;;;;;;7.31;79.61;98319.29;105539;1273;24961;-57
2022/02/21 02:20:18;;;;;;;0.80;0.10;;;;;;;7.31;79.65;98312.98;105735;1273;25359;-57
2022/02/21 02:22:50;;;;;;;0.50;0.10;;;;;;;7.31;79.54;98306.17;105843;1273;22555;-58
2022/02/21 02:25:22;;;;;;;2.30;0.20;;;;;;;7.32;79.48;98304.96;105626;1273;22574;-58
2022/02/21 02:27:53;;;;;;;1.30;0.20;;;;;;;7.32;79.42;98298.05;105827;1273;22552;-59
2022/02/21 02:30:26;;;;;;;1.30;0.20;;;;;;;7.33;79.24;98291.53;105675;1273;22586;-58
2022/02/21 02:32:57;;;;;;;0.90;0.20;;;;;;;7.34;79.19;98288.46;105871;1273;22775;-58
2022/02/21 02:35:32;;;;;;;1.20;0.20;;;;;;;7.35;79.02;98281.19;105537;1273;22538;-57
2022/02/21 02:38:03;;;;;;;1.70;0.30;;;;;;;7.36;78.89;98280.09;105818;1273;26523;-58
2022/02/21 02:40:37;;;;;;;1.10;0.10;;;;;;;7.38;78.90;98278.92;105726;1273;25386;-56
2022/02/21 02:43:08;;;;;;;0.30;0.10;;;;;;;7.39;78.87;98279.89;105709;1273;24294;-58
2022/02/21 02:45:45;;;;;;;0.50;0.10;;;;;;;7.39;78.90;98273.13;105613;1273;22553;-57
2022/02/21 02:48:17;;;;;;;0.90;0.20;;;;;;;7.40;78.82;98266.82;105837;1273;24482;-58
2022/02/21 02:50:50;;;;;;;1.00;0.20;;;;;;;7.41;78.60;98251.07;105676;1273;22577;-57
2022/02/21 02:53:22;;;;;;;0.70;0.20;;;;;;;7.42;78.52;98242.03;105748;1273;23314;-60
2022/02/21 02:55:54;;;;;;;1.30;0.00;;;;;;;7.44;78.43;98237.42;105693;1273;22543;-58
2022/02/21 02:58:25;;;;;;;1.10;0.10;;;;;;;7.46;78.35;98229.91;105623;1273;22560;-58
2022/02/21 03:00:57;;;;;;;1.10;0.20;;;;;;;7.47;78.33;98224.11;105774;1273;22560;-57
2022/02/21 03:03:29;;;;;;;1.80;0.20;;;;;;;7.48;78.25;98214.62;105627;1273;26244;-58
2022/02/21 03:06:00;;;;;;;0.40;0.10;;;;;;;7.49;78.18;98212.59;105596;1273;25411;-57
2022/02/21 03:08:33;;;;;;;0.80;0.00;;;;;;;7.50;78.18;98209.96;105611;1272;22604;-58
2022/02/21 03:11:04;;;;;;;0.90;0.20;;;;;;;7.51;78.16;98208.66;105830;1273;25532;-58
2022/02/21 03:13:36;;;;;;;1.80;0.20;;;;;;;7.52;78.16;98208.20;105740;1273;23110;-58
2022/02/21 03:16:09;;;;;;;1.30;0.20;;;;;;;7.52;78.02;98204.45;105739;1273;22556;-60
2022/02/21 03:18:41;;;;;;;2.00;0.10;;;;;;;7.54;78.06;98202.09;105785;1273;25383;-57
2022/02/21 03:21:12;;;;;;;0.70;0.10;;;;;;;7.55;78.08;98195.89;105895;1273;22609;-58
2022/02/21 03:23:44;;;;;;;2.40;0.30;;;;;;;7.57;78.15;98188.60;105764;1273;22547;-58
2022/02/21 03:26:16;;;;;;;0.80;0.10;;;;;;;7.59;78.17;98181.23;105721;1273;26530;-58
2022/02/21 03:28:47;;;;;;;1.30;0.30;;;;;;;7.61;78.40;98178.55;105608;1273;22565;-58
2022/02/21 03:31:20;;;;;;;1.90;0.20;;;;;;;7.64;78.49;98169.96;105687;1273;22661;-60
2022/02/21 03:33:51;;;;;;;1.40;0.20;;;;;;;7.65;78.52;98153.29;105910;1273;24371;-56
2022/02/21 03:36:22;;;;;;;7.40;0.40;;;;;;;7.65;78.60;98145.38;105623;1273;22632;-57
2022/02/21 03:38:54;;;;;;;1.60;0.20;;;;;;;7.65;78.75;98154.15;105765;1273;22560;-56
2022/02/21 03:41:27;;;;;;;4.40;0.20;;;;;;;7.66;78.67;98146.33;105623;1273;22562;-58
2022/02/21 03:43:58;;;;;;;5.10;0.40;;;;;;;7.67;78.73;98150.05;106014;1273;22617;-58
2022/02/21 03:46:30;;;;;;;1.50;0.30;;;;;;;7.67;78.77;98142.04;105837;1273;22583;-60
2022/02/21 03:49:02;;;;;;;3.50;0.30;;;;;;;7.68;78.51;98134.55;105707;1273;22550;-58
2022/02/21 03:51:33;;;;;;;1.70;0.20;;;;;;;7.70;78.39;98126.46;105695;1273;24324;-57
2022/02/21 03:54:05;;;;;;;1.30;0.20;;;;;;;7.72;78.33;98124.89;105592;1273;25254;-58
2022/02/21 03:56:37;;;;;;;2.10;0.30;;;;;;;7.74;78.18;98122.92;105740;1273;24274;-58
2022/02/21 03:59:09;;;;;;;1.90;0.30;;;;;;;7.77;78.11;98120.68;105750;1273;22541;-57
2022/02/21 04:01:40;;;;;;;1.20;0.30;;;;;;;7.81;77.83;98113.19;105799;1273;25325;-58
2022/02/21 04:04:12;;;;;;;2.30;0.20;;;;;;;7.84;77.74;98108.17;105643;1273;24229;-58
2022/02/21 04:06:43;;;;;;;2.80;0.20;;;;;;;7.87;77.81;98100.02;105712;1273;24025;-59
2022/02/21 04:09:14;;;;;;;3.70;0.50;;;;;;;7.89;77.45;98091.42;105813;1273;25268;-56
2022/02/21 04:11:46;;;;;;;3.70;0.40;;;;;;;7.93;77.32;98092.13;105645;1272;319538;-59
2022/02/21 04:14:17;;;;;;;1.60;0.20;;;;;;;7.96;77.02;98088.07;105976;1271;22574;-57
2022/02/21 04:16:48;;;;;;;1.30;0.20;;;;;;;7.99;76.94;98088.55;105828;1273;25271;-60
2022/02/21 04:19:20;;;;;;;1.60;0.20;;;;;;;8.01;76.72;98079.95;105719;1273;22625;-57
2022/02/21 04:21:53;;;;;;;2.80;0.20;;;;;;;8.03;76.62;98072.00;105749;1273;23378;-58
2022/02/21 04:24:25;;;;;;;1.10;0.20;;;;;;;8.06;76.49;98074.27;105659;1273;22576;-58
2022/02/21 04:26:57;;;;;;;2.50;0.20;;;;;;;8.07;76.25;98059.86;105593;1273;22610;-58
2022/02/21 04:29:28;;;;;;;0.60;0.20;;;;;;;8.10;76.45;98060.61;105564;1273;24447;-57
2022/02/21 04:32:00;;;;;;;1.40;0.20;;;;;;;8.10;76.22;98052.82;105754;1273;25459;-59
2022/02/21 04:34:31;;;;;;;2.50;0.20;;;;;;;8.10;76.20;98049.19;105589;1273;22574;-58
2022/02/21 04:37:03;;;;;;;1.80;0.20;;;;;;;8.10;76.02;98043.33;105693;1273;25264;-58
2022/02/21 04:39:34;;;;;;;3.40;0.20;;;;;;;8.09;76.02;98038.67;105611;1273;24265;-58
2022/02/21 04:42:07;;;;;;;2.90;0.20;;;;;;;8.08;76.03;98034.64;105678;1273;23008;-57
2022/02/21 04:44:39;;;;;;;1.30;0.10;;;;;;;8.07;76.03;98030.24;105651;1272;25407;-58
2022/02/21 04:47:11;;;;;;;0.60;0.10;;;;;;;8.07;75.96;98030.15;105698;1273;24294;-57
2022/02/21 04:49:42;;;;;;;2.50;0.20;;;;;;;8.06;75.90;98029.35;105720;1273;25342;-58
2022/02/21 04:52:14;;;;;;;1.10;0.10;;;;;;;8.06;75.89;98021.16;105777;1273;24394;-64
2022/02/21 04:54:46;;;;;;;2.00;0.20;;;;;;;8.05;75.95;98025.46;105925;1273;22681;-57
2022/02/21 04:57:17;;;;;;;1.90;0.30;;;;;;;8.06;75.95;98013.95;106192;1273;25634;-59
2022/02/21 04:59:49;;;;;;;1.00;0.20;;;;;;;8.05;75.89;98012.07;105843;1273;25266;-58
2022/02/21 05:02:21;;;;;;;3.00;0.30;;;;;;;8.05;75.82;98007.48;105774;1273;25587;-59
2022/02/21 05:04:53;;;;;;;2.60;0.20;;;;;;;8.05;75.86;97997.77;105701;1273;24316;-59
2022/02/21 05:07:26;;;;;;;1.70;0.20;;;;;;;8.05;75.77;97988.17;105740;1273;22535;-58
2022/02/21 05:09:57;;;;;;;1.80;0.10;;;;;;;8.05;75.79;97989.45;106205;1273;23613;-56
2022/02/21 05:12:30;;;;;;;5.10;0.40;;;;;;;8.06;75.63;97992.32;105833;1273;22602;-58
2022/02/21 05:15:09;;;;;;;2.60;0.20;;;;;;;8.07;75.66;97983.71;105879;1273;25530;-57
2022/02/21 05:17:42;;;;;;;3.20;0.30;;;;;;;8.07;75.56;97979.42;105836;1273;22595;-59
2022/02/21 05:20:15;;;;;;;5.50;0.50;;;;;;;8.09;75.35;97976.58;105771;1272;22542;-54
2022/02/21 05:22:49;;;;;;;1.50;0.20;;;;;;;8.12;75.36;97968.73;106261;1273;26409;-59
2022/02/21 05:25:22;;;;;;;0.90;0.30;;;;;;;8.16;75.25;97964.66;106470;1273;25464;-64
2022/02/21 05:27:55;;;;;;;3.90;0.20;;;;;;;8.21;74.88;97962.39;105830;1273;22549;-59
2022/02/21 05:30:27;;;;;;;4.40;0.30;;;;;;;8.28;74.98;97963.59;105751;1273;24719;-58
2022/02/21 05:32:59;;;;;;;0.70;0.20;;;;;;;8.33;74.55;97958.89;105777;1272;23021;-61
2022/02/21 05:35:31;;;;;;;1.80;0.10;;;;;;;8.38;74.47;97952.94;105637;1274;26616;-58
2022/02/21 05:38:04;;;;;;;1.80;0.20;;;;;;;8.42;74.28;97951.33;105835;1273;22573;-59
2022/02/21 05:40:35;;;;;;;2.40;0.30;;;;;;;8.45;74.10;97959.19;105811;1273;24208;-58
2022/02/21 05:43:07;;;;;;;1.80;0.20;;;;;;;8.46;74.09;97953.36;105844;1273;25422;-58
2022/02/21 05:45:39;;;;;;;2.90;0.30;;;;;;;8.47;74.09;97950.16;105620;1273;22776;-59
2022/02/21 05:48:10;;;;;;;1.60;0.20;;;;;;;8.49;73.80;97949.79;105941;1272;22551;-59
2022/02/21 05:50:42;;;;;;;2.40;0.30;;;;;;;8.52;73.87;97945.13;105693;1273;22615;-59
2022/02/21 05:53:14;;;;;;;1.70;0.20;;;;;;;8.54;73.75;97944.08;106951;1273;25535;-59
2022/02/21 05:55:47;;;;;;;2.40;0.40;;;;;;;8.54;73.77;97948.53;105847;1273;25419;-59
2022/02/21 05:58:19;;;;;;;5.10;0.30;;;;;;;8.56;73.58;97948.82;106558;1271;25516;-60
2022/02/21 06:00:50;;;;;;;1.80;0.20;;;;;;;8.57;73.61;97947.34;105754;1271;22557;-60
2022/02/21 06:03:23;;;;;;;2.00;0.20;;;;;;;8.59;73.65;97944.52;105811;1273;22607;-58
2022/02/21 06:05:55;;;;;;;1.40;0.20;;;;;;;8.59;73.52;97948.38;105694;1271;25509;-60
2022/02/21 06:08:29;;;;;;;1.80;0.20;;;;;;;8.61;73.47;97944.81;105436;1271;24437;-61
2022/02/21 06:11:00;;;;;;;1.80;0.30;;;;;;;8.62;73.45;97944.61;105671;1271;24412;-59
2022/02/21 06:13:32;;;;;;;0.90;0.20;;;;;;;8.63;73.27;97944.64;105755;1273;22705;-62
2022/02/21 06:16:07;;;;;;;3.00;0.30;;;;;;;8.65;73.35;97949.18;105839;1273;25251;-59
2022/02/21 06:18:38;;;;;;;2.60;0.30;;;;;;;8.67;73.07;97952.30;105797;1273;22626;-59
2022/02/21 06:21:10;;;;;;;2.70;0.20;;;;;;;8.69;73.21;97953.39;105632;1273;22628;-61
2022/02/21 06:23:41;;;;;;;3.60;0.80;;;;;;;8.70;73.22;97948.08;105684;1273;23807;-61
2022/02/21 06:26:13;;;;;;;2.40;0.30;;;;;;;8.71;73.14;97947.77;105634;1273;22667;-59
2022/02/21 06:28:44;;;;;;;4.20;0.40;;;;;;;8.72;73.02;97950.22;105703;1273;22555;-58
2022/02/21 06:31:16;;;;;;;1.90;0.20;;;;;;;8.74;72.92;97958.70;105710;1273;26610;-59
2022/02/21 06:33:47;;;;;;;0.50;0.10;;;;;;;8.76;72.95;97965.14;105702;1273;22553;-59
2022/02/21 06:36:19;;;;;;;1.60;0.30;;;;;;;8.78;72.79;97974.04;105726;1273;22721;-59
2022/02/21 06:38:50;;;;;;;2.10;0.30;;;;;;;8.79;72.79;97984.75;105664;1273;25269;-60
2022/02/21 06:41:22;;;;;;;2.30;0.20;;;;;;;8.80;73.08;98002.48;105894;1273;23341;-60
2022/02/21 06:43:54;;;;;;;1.70;0.20;;;;;;;8.77;73.82;98029.87;105955;1273;25375;-58
2022/02/21 06:46:25;;;;;;;3.20;0.20;;;;;;;8.71;74.29;98058.41;105742;1273;22626;-62
2022/02/21 06:48:58;;;;;;;4.30;0.30;;;;;;;8.63;74.98;98101.47;105711;1273;24370;-61
2022/02/21 06:51:30;;;;;;;1.40;0.10;;;;;;;8.52;75.17;98129.50;105596;1273;26157;-59
2022/02/21 06:54:02;;;;;;;2.00;0.10;;;;;;;8.34;72.44;98111.12;105663;1271;22576;-59
2022/02/21 06:56:34;;;;;;;1.50;0.10;;;;;;;8.13;72.16;98077.41;105696;1273;25270;-59
2022/02/21 06:59:07;;;;;;;1.20;0.10;;;;;;;7.97;71.59;98070.27;105558;1273;22564;-57
2022/02/21 07:01:39;;;;;;;1.20;0.10;;;;;;;7.88;72.20;98078.05;105716;1273;22634;-59
2022/02/21 07:04:10;;;;;;;0.20;0.10;;;;;;;7.79;72.54;98091.83;105671;1273;25503;-59
2022/02/21 07:06:44;;;;;;;1.90;0.10;;;;;;;7.71;72.68;98105.09;105845;1271;22630;-57
2022/02/21 07:09:16;;;;;;;1.50;0.20;;;;;;;7.66;72.92;98106.33;105864;1271;22835;-59
2022/02/21 07:11:48;;;;;;;0.80;0.10;;;;;;;7.61;73.09;98110.23;105589;1273;24457;-59
2022/02/21 07:14:22;;;;;;;0.90;0.20;;;;;;;7.58;73.07;98114.42;105667;1273;22641;-59
2022/02/21 07:16:53;;;;;;;1.60;0.10;;;;;;;7.56;73.17;98122.77;105636;1273;25335;-59
2022/02/21 07:19:26;;;;;;;2.80;0.20;;;;;;;7.55;73.25;98123.70;105534;1273;24498;-59
2022/02/21 07:21:59;;;;;;;2.20;0.30;;;;;;;7.58;72.51;98128.16;105449;1273;22577;-59
2022/02/21 07:24:31;;;;;;;1.00;0.20;;;;;;;7.64;72.75;98138.91;105771;1271;23081;-59
2022/02/21 07:27:03;;;;;;;0.90;0.20;;;;;;;7.67;72.29;98143.73;105709;1273;22649;-59
2022/02/21 07:29:36;;;;;;;0.80;0.10;;;;;;;7.71;71.39;98147.36;105643;1273;22694;-59
2022/02/21 07:32:10;;;;;;;0.90;0.10;;;;;;;7.76;70.40;98150.19;105772;1273;22537;-59
2022/02/21 07:34:42;;;;;;;1.20;0.10;;;;;;;7.79;69.16;98151.99;105928;1271;22590;-59
2022/02/21 07:37:14;;;;;;;1.20;0.10;;;;;;;7.83;69.31;98169.39;105667;1273;22557;-60
2022/02/21 07:39:46;;;;;;;0.60;0.00;;;;;;;7.83;68.21;98175.71;105896;1272;22667;-59
2022/02/21 07:42:20;;;;;;;1.50;0.20;;;;;;;7.83;68.64;98181.46;105688;1273;25311;-61
2022/02/21 07:44:52;;;;;;;1.80;0.10;;;;;;;7.80;67.83;98182.84;106122;1273;24511;-58
2022/02/21 07:47:26;;;;;;;0.50;0.10;;;;;;;7.78;67.58;98181.23;106679;1273;22608;-61
2022/02/21 07:50:00;;;;;;;0.70;0.10;;;;;;;7.74;67.01;98187.60;106532;1273;24270;-58
2022/02/21 07:52:32;;;;;;;0.60;0.10;;;;;;;7.71;67.18;98185.69;106711;1273;22732;-58
2022/02/21 07:55:05;;;;;;;0.20;0.00;;;;;;;7.66;66.79;98200.44;106633;1273;22549;-59
2022/02/21 07:57:39;;;;;;;0.40;0.10;;;;;;;7.61;66.51;98193.64;106619;1273;22539;-59
2022/02/21 08:00:20;;;;;;;1.70;0.10;;;;;;;7.57;66.72;98201.33;106374;1273;22697;-60
2022/02/21 08:02:53;;;;;;;0.70;0.20;;;;;;;7.52;66.67;98203.80;106776;1273;23448;-60
2022/02/21 08:05:25;;;;;;;1.10;0.10;;;;;;;7.47;66.72;98200.79;106561;1273;22591;-59
2022/02/21 08:07:56;;;;;;;2.60;0.20;;;;;;;7.42;66.37;98205.59;106753;1273;22620;-59
2022/02/21 08:10:28;;;;;;;2.20;0.20;;;;;;;7.37;66.78;98207.61;106459;1273;22538;-59
2022/02/21 08:12:59;;;;;;;0.60;0.20;;;;;;;7.32;66.29;98207.86;106510;1273;23032;-60
2022/02/21 08:15:30;;;;;;;2.90;0.10;;;;;;;7.26;66.08;98207.26;106516;1273;22629;-59
2022/02/21 08:18:03;;;;;;;4.40;0.20;;;;;;;7.21;66.04;98186.79;106568;1273;22639;-58
2022/02/21 08:20:35;;;;;;;1.90;0.20;;;;;;;7.17;66.15;98168.98;106517;1273;22631;-58
2022/02/21 08:23:06;;;;;;;2.00;0.20;;;;;;;7.14;66.74;98176.45;106516;1273;25260;-61
2022/02/21 08:25:37;;;;;;;2.20;0.30;;;;;;;7.11;66.59;98182.95;106448;1273;24655;-59
2022/02/21 08:28:08;;;;;;;1.50;0.20;;;;;;;7.09;66.42;98183.41;106544;1273;23997;-58
2022/02/21 08:30:39;;;;;;;2.00;0.20;;;;;;;7.06;66.02;98187.34;106197;1273;22549;-60
2022/02/21 08:33:10;;;;;;;2.50;0.50;;;;;;;7.02;66.16;98180.30;106545;1273;25318;-61
2022/02/21 08:35:41;;;;;;;2.60;0.30;;;;;;;7.00;66.68;98175.65;106474;1273;22544;-61
2022/02/21 08:38:13;;;;;;;1.40;0.20;;;;;;;6.97;66.06;98175.59;106447;1273;24235;-59
2022/02/21 08:40:44;;;;;;;1.50;0.30;;;;;;;6.93;65.76;98190.37;106497;1273;26523;-61
2022/02/21 08:43:15;;;;;;;2.10;0.40;;;;;;;6.89;65.57;98198.83;106558;1273;23328;-61
2022/02/21 08:45:48;;;;;;;3.50;0.50;;;;;;;6.85;65.85;98205.14;106476;1273;22571;-60
2022/02/21 08:48:19;;;;;;;4.30;0.90;;;;;;;6.82;65.57;98218.70;106548;1273;22670;-60
2022/02/21 08:50:50;;;;;;;4.10;0.60;;;;;;;6.79;65.88;98224.59;106594;1273;24272;-61
2022/02/21 08:53:22;;;;;;;2.50;0.40;;;;;;;6.76;65.67;98222.63;106452;1273;24316;-60
2022/02/21 08:55:53;;;;;;;6.90;0.60;;;;;;;6.75;66.00;98220.05;106510;1273;23012;-59
2022/02/21 08:58:24;;;;;;;2.00;0.30;;;;;;;6.75;65.99;98211.77;106587;1273;25386;-59
2022/02/21 09:00:56;;;;;;;1.30;0.30;;;;;;;6.77;65.90;98229.83;106415;1273;23293;-61
2022/02/21 09:03:27;;;;;;;1.40;0.40;;;;;;;6.79;66.46;98243.45;106449;1273;23587;-62
2022/02/21 09:05:59;;;;;;;2.50;0.40;;;;;;;6.81;66.66;98240.42;106534;1273;26081;-65
2022/02/21 09:08:33;;;;;;;4.30;0.70;;;;;;;6.84;66.93;98235.54;106527;1273;22562;-59
2022/02/21 09:11:05;;;;;;;3.40;0.70;;;;;;;6.88;67.24;98239.88;106591;1273;22568;-59
2022/02/21 09:13:36;;;;;;;6.50;0.60;;;;;;;6.93;67.30;98256.67;106504;1273;26004;-61
2022/02/21 09:16:09;;;;;;;7.80;1.00;;;;;;;6.97;67.23;98271.77;106477;1273;25401;-60
2022/02/21 09:18:40;;;;;;;5.90;0.70;;;;;;;6.99;67.36;98276.83;106639;1273;22550;-58
2022/02/21 09:21:11;;;;;;;2.70;0.60;;;;;;;6.99;67.15;98294.73;106532;1273;24336;-58
2022/02/21 09:23:43;;;;;;;2.20;0.40;;;;;;;6.99;66.66;98312.89;107081;1273;25596;-61
2022/02/21 09:26:15;;;;;;;2.80;0.50;;;;;;;6.99;66.94;98316.63;107393;1273;24912;-60
2022/02/21 09:28:46;;;;;;;3.20;0.40;;;;;;;7.00;66.96;98322.27;106488;1273;24237;-59
2022/02/21 09:31:18;;;;;;;4.80;0.50;;;;;;;7.00;66.85;98318.45;106482;1272;24334;-61
2022/02/21 09:33:49;;;;;;;5.70;0.70;;;;;;;7.01;66.99;98323.98;106605;1273;22713;-61
2022/02/21 09:36:21;;;;;;;3.90;0.50;;;;;;;7.04;67.03;98330.55;106544;1273;22595;-61
2022/02/21 09:38:54;;;;;;;6.50;0.60;;;;;;;7.06;66.38;98321.52;106595;1273;22484;-60
2022/02/21 09:41:25;;;;;;;4.50;0.40;;;;;;;7.09;66.10;98343.53;106567;1273;24267;-59
2022/02/21 09:43:56;;;;;;;5.70;0.30;;;;;;;7.11;65.51;98350.44;106469;1273;22648;-58
2022/02/21 09:46:32;;;;;;;8.60;0.60;;;;;;;7.12;65.58;98363.15;106476;1273;26633;-59
2022/02/21 09:49:03;;;;;;;5.00;0.40;;;;;;;7.11;65.18;98358.42;106555;1271;22539;-59
2022/02/21 09:51:34;;;;;;;6.30;0.50;;;;;;;7.11;65.46;98361.90;106415;1273;24228;-59
2022/02/21 09:54:05;;;;;;;3.30;0.40;;;;;;;7.12;65.29;98380.26;106433;1273;22616;-60
2022/02/21 09:56:37;;;;;;;2.60;0.20;;;;;;;7.10;64.98;98406.14;106545;1272;25372;-59
2022/02/21 09:59:09;;;;;;;3.60;0.40;;;;;;;7.07;63.94;98419.69;106608;1273;24354;-59
2022/02/21 10:01:44;;;;;;;2.70;0.30;;;;;;;7.00;64.03;98419.92;106422;1271;22548;-58
2022/02/21 10:04:22;;;;;;;4.90;0.30;;;;;;;6.88;63.25;98415.63;106647;1273;24300;-58
2022/02/21 10:06:56;;;;;;;2.90;0.30;;;;;;;6.75;63.88;98431.95;106381;1273;24979;-59
2022/02/21 10:09:28;;;;;;;2.60;0.30;;;;;;;6.63;63.94;98441.73;106449;1273;22982;-62
2022/02/21 10:11:59;;;;;;;3.90;0.40;;;;;;;6.47;64.19;98443.41;106094;1273;25012;-59
2022/02/21 10:14:36;;;;;;;1.20;0.20;;;;;;;6.29;64.59;98448.02;106168;1273;24233;-57
2022/02/21 10:17:09;;;;;;;3.00;0.40;;;;;;;6.16;64.92;98453.50;106205;1273;23846;-60
2022/02/21 10:19:42;;;;;;;2.60;0.30;;;;;;;6.05;64.97;98442.04;106269;1273;24691;-59
2022/02/21 10:22:14;;;;;;;5.10;1.20;;;;;;;6.01;65.44;98433.55;106275;1273;24388;-57
2022/02/21 10:24:47;;;;;;;7.90;1.10;;;;;;;6.00;65.52;98421.50;106246;1273;22531;-60
2022/02/21 10:27:20;;;;;;;11.60;1.10;;;;;;;5.99;65.78;98430.02;106248;1273;22484;-56
2022/02/21 10:29:53;;;;;;;7.10;0.60;;;;;;;6.03;65.90;98439.05;106254;1273;24503;-57
2022/02/21 10:32:26;;;;;;;4.40;0.80;;;;;;;6.06;65.79;98448.69;106266;1273;25836;-58
2022/02/21 10:35:10;;;;;;;5.70;0.50;;;;;;;6.07;65.85;98439.33;106382;1271;25470;-58
2022/02/21 10:37:46;;;;;;;1.30;0.30;;;;;;;6.09;65.52;98440.00;106718;1273;22563;-58
2022/02/21 10:40:21;;;;;;;1.90;0.60;;;;;;;6.08;65.31;98446.99;106100;1273;25505;-58
2022/02/21 10:43:06;;;;;;;2.50;0.30;;;;;;;6.09;64.71;98453.66;106515;1272;22763;-59
2022/02/21 10:45:40;;;;;;;3.70;0.30;;;;;;;6.08;64.65;98457.38;106222;1273;22541;-60
2022/02/21 10:48:14;;;;;;;1.00;0.20;;;;;;;6.04;64.21;98480.91;106010;1273;22567;-60
2022/02/21 10:50:58;;;;;;;1.90;0.30;;;;;;;6.00;64.03;98478.16;106169;1273;23947;-60
2022/02/21 10:53:40;;;;;;;3.10;0.30;;;;;;;5.96;64.16;98471.33;106395;1273;23070;-59
2022/02/21 10:56:12;;;;;;;6.30;0.40;;;;;;;5.92;64.22;98472.65;106443;1273;22537;-59
2022/02/21 10:58:43;;;;;;;2.30;0.30;;;;;;;5.92;64.52;98485.20;106436;1273;22627;-59
2022/02/21 11:01:15;;;;;;;5.70;0.30;;;;;;;5.93;64.58;98498.59;106253;1273;24272;-59
2022/02/21 11:03:49;;;;;;;3.40;0.40;;;;;;;5.92;64.32;98494.16;106225;1273;25275;-56
2022/02/21 11:06:20;;;;;;;7.90;0.30;;;;;;;5.92;64.32;98493.55;106493;1273;22563;-59
2022/02/21 11:08:53;;;;;;;2.50;0.50;;;;;;;5.92;64.61;98492.48;106375;1273;24244;-59
2022/02/21 11:11:26;;;;;;;3.40;0.30;;;;;;;5.94;64.17;98515.52;106436;1273;25322;-56
2022/02/21 11:13:59;;;;;;;1.90;0.40;;;;;;;5.92;64.12;98518.08;106363;1273;22633;-57
2022/02/21 11:16:34;;;;;;;3.40;0.30;;;;;;;5.93;64.28;98511.78;106528;1274;24212;-59
2022/02/21 11:19:06;;;;;;;3.70;0.40;;;;;;;5.93;63.82;98531.83;106438;1273;25276;-55
2022/02/21 11:21:39;;;;;;;5.50;0.40;;;;;;;5.92;63.25;98535.44;106643;1273;25229;-58
2022/02/21 11:24:12;;;;;;;3.80;0.40;;;;;;;5.90;63.42;98527.57;106399;1273;23968;-60
2022/02/21 11:26:54;;;;;;;4.60;0.70;;;;;;;5.90;63.37;98531.65;106377;1273;24260;-60
2022/02/21 11:29:36;;;;;;;4.20;0.80;;;;;;;5.93;63.38;98533.28;106412;1273;25973;-59
2022/02/21 11:32:15;;;;;;;3.90;0.60;;;;;;;5.97;63.01;98532.92;106483;1273;22580;-58
2022/02/21 11:35:10;;;;;;;1.90;0.30;;;;;;;6.00;62.39;98529.63;106435;1273;22560;-60
2022/02/21 11:37:42;;;;;;;4.90;0.50;;;;;;;6.01;62.17;98522.58;106531;1273;22594;-60
2022/02/21 11:40:16;;;;;;;6.30;0.60;;;;;;;6.02;62.04;98532.27;106342;1273;24190;-59
2022/02/21 11:42:48;;;;;;;6.40;0.60;;;;;;;6.02;61.32;98537.00;106447;1273;22544;-58
2022/02/21 11:45:28;;;;;;;4.90;0.50;;;;;;;6.04;61.30;98545.33;106539;1273;25987;-59
2022/02/21 11:48:12;;;;;;;9.10;0.80;;;;;;;6.09;61.74;98546.38;106645;1273;24367;-58
2022/02/21 11:50:44;;;;;;;5.60;1.20;;;;;;;6.14;61.57;98548.44;106492;1273;22615;-58
2022/02/21 11:53:29;;;;;;;4.20;0.70;;;;;;;6.18;61.39;98540.52;107139;1273;22543;-58
2022/02/21 11:56:03;;;;;;;6.60;0.60;;;;;;;6.26;61.26;98533.65;106574;1272;22567;-58
2022/02/21 11:58:43;;;;;;;12.20;1.00;;;;;;;6.36;60.35;98534.89;106849;1273;25450;-58